createdAt,value
2017-06-14T00:00:00.192Z,13.40
2017-06-14T00:02:28.458Z,13.30
2017-06-14T00:04:55.991Z,13.30
2017-06-14T00:07:23.498Z,13.30
2017-06-14T00:09:51.058Z,13.30
2017-06-14T00:12:19.411Z,13.20
2017-06-14T00:14:46.933Z,13.20
2017-06-14T00:17:14.467Z,13.10
2017-06-14T00:19:41.984Z,13.10
2017-06-14T00:22:09.507Z,13.10
2017-06-14T00:24:37.007Z,13.00
2017-06-14T00:27:04.561Z,13.00
2017-06-14T00:29:32.067Z,13.00
2017-06-14T00:31:59.575Z,12.90
2017-06-14T00:34:27.113Z,12.90
2017-06-14T00:36:54.628Z,12.90
2017-06-14T00:39:22.167Z,12.80
2017-06-14T00:41:49.686Z,12.80
2017-06-14T00:44:17.232Z,12.80
2017-06-14T00:46:44.744Z,12.70
2017-06-14T00:49:13.019Z,12.70
2017-06-14T00:51:41.348Z,12.70
2017-06-14T00:54:09.123Z,12.70
2017-06-14T00:56:36.967Z,12.70
2017-06-14T00:59:04.474Z,12.60
2017-06-14T01:01:31.983Z,12.60
2017-06-14T01:03:59.541Z,12.60
2017-06-14T01:06:27.052Z,12.60
2017-06-14T01:08:54.557Z,12.50
2017-06-14T01:11:22.082Z,12.50
2017-06-14T01:13:49.617Z,12.50
2017-06-14T01:16:17.257Z,12.50
2017-06-14T01:18:44.767Z,12.50
2017-06-14T01:21:13.079Z,12.40
2017-06-14T01:23:40.578Z,12.40
2017-06-14T01:26:08.134Z,12.40
2017-06-14T01:28:35.671Z,12.40
2017-06-14T01:31:03.178Z,12.30
2017-06-14T01:33:30.761Z,12.30
2017-06-14T01:35:58.281Z,12.20
2017-06-14T01:38:25.791Z,12.20
2017-06-14T01:40:53.342Z,12.20
2017-06-14T01:43:20.909Z,12.20
2017-06-14T01:45:48.703Z,12.10
2017-06-14T01:48:16.222Z,12.10
2017-06-14T01:50:44.542Z,12.10
2017-06-14T01:53:12.042Z,12.10
2017-06-14T01:55:40.382Z,12.00
2017-06-14T01:58:07.893Z,12.00
2017-06-14T02:00:36.167Z,12.00
2017-06-14T02:03:04.486Z,12.00
2017-06-14T02:05:32.021Z,11.90
2017-06-14T02:07:59.564Z,11.90
2017-06-14T02:10:27.296Z,11.90
2017-06-14T02:12:54.834Z,11.90
2017-06-14T02:15:22.342Z,11.80
2017-06-14T02:17:49.838Z,11.80
2017-06-14T02:20:17.400Z,11.80
2017-06-14T02:22:44.903Z,11.80
2017-06-14T02:25:12.420Z,11.70
2017-06-14T02:27:40.304Z,11.70
2017-06-14T02:30:07.852Z,11.60
2017-06-14T02:32:35.358Z,11.60
2017-06-14T02:35:02.880Z,11.60
2017-06-14T02:37:30.416Z,11.60
2017-06-14T02:39:57.985Z,11.60
2017-06-14T02:42:25.502Z,11.50
2017-06-14T02:44:53.779Z,11.50
2017-06-14T02:47:22.085Z,11.50
2017-06-14T02:49:49.600Z,11.50
2017-06-14T02:52:17.139Z,11.40
2017-06-14T02:54:44.889Z,11.40
2017-06-14T02:57:12.426Z,11.40
2017-06-14T02:59:39.940Z,11.40
2017-06-14T03:02:07.505Z,11.50
2017-06-14T03:04:35.264Z,11.50
2017-06-14T03:07:02.775Z,11.50
2017-06-14T03:09:30.355Z,11.50
2017-06-14T03:11:58.055Z,11.50
2017-06-14T03:14:25.565Z,11.50
2017-06-14T03:16:53.105Z,11.50
2017-06-14T03:19:20.628Z,11.50
2017-06-14T03:21:48.178Z,11.40
2017-06-14T03:24:15.696Z,11.40
2017-06-14T03:26:43.238Z,11.40
2017-06-14T03:29:10.804Z,11.40
2017-06-14T03:31:38.324Z,11.40
2017-06-14T03:34:05.860Z,11.50
2017-06-14T03:36:33.403Z,11.40
2017-06-14T03:39:01.175Z,11.40
2017-06-14T03:41:28.733Z,11.50
2017-06-14T03:43:56.256Z,11.50
2017-06-14T03:46:23.765Z,11.50
2017-06-14T03:48:51.319Z,11.50
2017-06-14T03:51:18.849Z,11.60
2017-06-14T03:53:46.642Z,11.60
2017-06-14T03:56:14.155Z,11.60
2017-06-14T03:58:41.697Z,11.70
2017-06-14T04:01:09.221Z,11.70
2017-06-14T04:03:36.803Z,11.70
2017-06-14T04:06:04.310Z,11.80
2017-06-14T04:08:31.836Z,11.80
2017-06-14T04:11:00.145Z,11.80
2017-06-14T04:13:27.665Z,11.80
2017-06-14T04:15:55.202Z,11.90
2017-06-14T04:18:22.719Z,11.90
2017-06-14T04:20:50.282Z,12.00
2017-06-14T04:23:17.801Z,12.10
2017-06-14T04:25:45.318Z,12.20
2017-06-14T04:28:12.857Z,12.20
2017-06-14T04:30:40.383Z,12.20
2017-06-14T04:33:07.948Z,12.20
2017-06-14T04:35:36.242Z,12.40
2017-06-14T04:38:03.744Z,12.40
2017-06-14T04:40:31.275Z,12.40
2017-06-14T04:42:58.795Z,12.40
2017-06-14T04:45:26.354Z,12.40
2017-06-14T04:47:53.868Z,12.40
2017-06-14T04:50:21.406Z,12.40
2017-06-14T04:52:48.913Z,12.50
2017-06-14T04:55:16.756Z,12.50
2017-06-14T04:57:44.267Z,12.50
2017-06-14T05:00:11.872Z,12.60
2017-06-14T05:02:40.200Z,12.50
2017-06-14T05:05:08.533Z,12.60
2017-06-14T05:07:36.189Z,12.60
2017-06-14T05:10:04.304Z,12.70
2017-06-14T05:12:31.908Z,12.70
2017-06-14T05:14:59.439Z,12.70
2017-06-14T05:17:27.789Z,12.80
2017-06-14T05:19:55.293Z,12.80
2017-06-14T05:22:23.584Z,12.80
2017-06-14T05:24:51.109Z,12.80
2017-06-14T05:27:18.671Z,12.90
2017-06-14T05:29:47.000Z,13.10
2017-06-14T05:32:14.512Z,13.10
2017-06-14T05:34:42.812Z,13.10
2017-06-14T05:37:10.575Z,13.10
2017-06-14T05:39:38.090Z,13.00
2017-06-14T05:42:05.636Z,13.00
2017-06-14T05:44:33.154Z,13.20
2017-06-14T05:47:00.949Z,13.30
2017-06-14T05:49:28.720Z,13.40
2017-06-14T05:51:56.243Z,13.60
2017-06-14T05:54:23.815Z,13.60
2017-06-14T05:56:51.322Z,13.60
2017-06-14T05:59:18.822Z,13.50
2017-06-14T06:01:46.359Z,13.60
2017-06-14T06:04:14.637Z,13.90
2017-06-14T06:06:42.511Z,13.90
2017-06-14T06:09:10.824Z,13.90
2017-06-14T06:11:40.193Z,13.90
2017-06-14T06:14:07.870Z,13.80
2017-06-14T06:16:35.663Z,13.80
2017-06-14T06:19:03.234Z,13.80
2017-06-14T06:21:30.784Z,14.00
2017-06-14T06:23:58.338Z,14.10
2017-06-14T06:26:26.691Z,14.10
2017-06-14T06:28:54.209Z,14.10
2017-06-14T06:31:24.319Z,14.30
2017-06-14T06:33:51.941Z,14.40
2017-06-14T06:36:19.735Z,14.50
2017-06-14T06:38:48.511Z,14.60
2017-06-14T06:41:16.134Z,14.80
2017-06-14T06:43:43.691Z,14.70
2017-06-14T06:46:11.972Z,14.70
2017-06-14T06:48:39.498Z,14.70
2017-06-14T06:51:07.006Z,14.80
2017-06-14T06:53:34.547Z,14.90
2017-06-14T06:56:02.907Z,15.00
2017-06-14T06:58:30.469Z,15.00
2017-06-14T07:00:57.970Z,15.10
2017-06-14T07:03:25.484Z,15.10
2017-06-14T07:05:53.039Z,15.10
2017-06-14T07:08:20.546Z,15.00
2017-06-14T07:10:48.072Z,15.10
2017-06-14T07:13:16.611Z,15.20
2017-06-14T07:15:44.263Z,15.20
2017-06-14T07:18:11.772Z,15.30
2017-06-14T07:20:39.360Z,15.40
2017-06-14T07:23:06.853Z,15.30
2017-06-14T07:25:34.374Z,15.30
2017-06-14T07:28:01.946Z,15.20
2017-06-14T07:30:29.683Z,15.20
2017-06-14T07:32:57.287Z,15.20
2017-06-14T07:35:24.890Z,15.20
2017-06-14T07:37:52.447Z,15.20
2017-06-14T07:40:20.065Z,15.10
2017-06-14T07:42:47.569Z,15.30
2017-06-14T07:45:15.124Z,15.40
2017-06-14T07:47:42.638Z,15.40
2017-06-14T07:50:10.204Z,15.40
2017-06-14T07:52:37.789Z,15.60
2017-06-14T07:55:05.654Z,15.70
2017-06-14T07:57:33.154Z,15.60
2017-06-14T08:00:00.746Z,15.70
2017-06-14T08:02:28.532Z,15.60
2017-06-14T08:04:56.072Z,15.60
2017-06-14T08:07:23.619Z,15.60
2017-06-14T08:09:51.133Z,15.50
2017-06-14T08:12:18.629Z,15.80
2017-06-14T08:14:46.191Z,16.00
2017-06-14T08:17:13.695Z,16.20
2017-06-14T08:19:41.189Z,16.20
2017-06-14T08:22:09.548Z,16.20
2017-06-14T08:24:37.074Z,16.20
2017-06-14T08:27:04.570Z,16.30
2017-06-14T08:29:32.106Z,16.30
2017-06-14T08:31:59.686Z,16.00
2017-06-14T08:34:27.206Z,16.00
2017-06-14T08:36:54.753Z,16.10
2017-06-14T08:39:22.310Z,16.20
2017-06-14T08:41:49.832Z,16.10
2017-06-14T08:44:17.344Z,16.10
2017-06-14T08:46:44.893Z,16.20
2017-06-14T08:49:12.464Z,16.30
2017-06-14T08:51:39.966Z,16.50
2017-06-14T08:54:07.476Z,16.60
2017-06-14T08:56:35.039Z,16.70
2017-06-14T08:59:02.597Z,16.80
2017-06-14T09:01:30.102Z,17.00
2017-06-14T09:03:57.627Z,16.90
2017-06-14T09:06:25.203Z,16.80
2017-06-14T09:08:52.951Z,16.90
2017-06-14T09:11:20.455Z,16.80
2017-06-14T09:13:48.777Z,16.60
2017-06-14T09:16:16.499Z,16.50
2017-06-14T09:18:50.357Z,16.50
2017-06-14T09:21:21.214Z,16.50
2017-06-14T09:23:53.596Z,16.80
2017-06-14T09:26:23.697Z,16.90
2017-06-14T09:28:54.245Z,16.90
2017-06-14T09:31:21.795Z,16.90
2017-06-14T09:33:49.308Z,16.90
2017-06-14T09:36:16.880Z,16.80
2017-06-14T09:38:44.406Z,16.90
2017-06-14T09:41:12.222Z,16.90
2017-06-14T09:43:39.980Z,16.80
2017-06-14T09:46:07.487Z,17.00
2017-06-14T09:48:35.758Z,17.20
2017-06-14T09:51:03.290Z,17.20
2017-06-14T09:53:30.842Z,17.10
2017-06-14T09:55:58.368Z,17.10
2017-06-14T09:58:25.950Z,17.30
2017-06-14T10:00:53.440Z,17.30
2017-06-14T10:03:20.939Z,17.30
2017-06-14T10:05:48.499Z,17.20
2017-06-14T10:08:15.997Z,17.30
2017-06-14T10:10:43.763Z,17.30
2017-06-14T10:13:11.298Z,17.60
2017-06-14T10:15:38.870Z,17.70
2017-06-14T10:18:06.393Z,17.80
2017-06-14T10:20:33.931Z,17.80
2017-06-14T10:23:01.482Z,17.60
2017-06-14T10:25:28.978Z,17.60
2017-06-14T10:27:56.567Z,17.80
2017-06-14T10:30:24.133Z,17.90
2017-06-14T10:32:51.657Z,17.80
2017-06-14T10:35:19.935Z,18.10
2017-06-14T10:37:47.477Z,18.10
2017-06-14T10:40:15.753Z,18.10
2017-06-14T10:42:44.079Z,18.30
2017-06-14T10:45:11.642Z,18.30
2017-06-14T10:47:39.518Z,18.30
2017-06-14T10:50:07.026Z,18.40
2017-06-14T10:52:34.847Z,18.40
2017-06-14T10:55:02.440Z,18.20
2017-06-14T10:57:29.958Z,18.30
2017-06-14T10:59:57.479Z,18.40
2017-06-14T11:02:25.089Z,18.50
2017-06-14T11:04:52.587Z,18.80
2017-06-14T11:07:20.101Z,18.90
2017-06-14T11:09:47.633Z,18.90
2017-06-14T11:12:15.169Z,18.90
2017-06-14T11:14:42.669Z,18.60
2017-06-14T11:17:10.242Z,18.60
2017-06-14T11:19:37.746Z,18.60
2017-06-14T11:22:05.251Z,18.70
2017-06-14T11:24:32.778Z,18.80
2017-06-14T11:27:00.295Z,18.90
2017-06-14T11:29:27.836Z,18.80
2017-06-14T11:31:55.416Z,18.90
2017-06-14T11:34:22.947Z,19.20
2017-06-14T11:36:50.491Z,19.40
2017-06-14T11:39:18.271Z,19.30
2017-06-14T11:41:45.783Z,19.30
2017-06-14T11:44:13.323Z,19.40
2017-06-14T11:46:40.863Z,19.20
2017-06-14T11:49:08.366Z,19.40
2017-06-14T11:51:35.957Z,19.30
2017-06-14T11:54:03.464Z,19.70
2017-06-14T11:56:30.975Z,19.80
2017-06-14T11:58:59.337Z,19.90
2017-06-14T12:01:26.857Z,20.10
2017-06-14T12:03:54.407Z,20.20
2017-06-14T12:06:23.554Z,19.90
2017-06-14T12:08:51.643Z,19.80
2017-06-14T12:11:19.790Z,19.90
2017-06-14T12:13:48.295Z,20.10
2017-06-14T12:16:16.806Z,20.00
2017-06-14T12:18:45.287Z,20.00
2017-06-14T12:21:13.625Z,20.10
2017-06-14T12:23:43.111Z,20.10
2017-06-14T12:26:12.934Z,20.20
2017-06-14T12:28:40.595Z,20.30
2017-06-14T12:31:10.448Z,20.40
2017-06-14T12:33:39.218Z,20.60
2017-06-14T12:36:06.894Z,20.70
2017-06-14T12:38:35.970Z,20.40
2017-06-14T12:41:05.074Z,20.20
2017-06-14T12:43:33.403Z,20.40
2017-06-14T12:46:00.924Z,20.60
2017-06-14T12:48:28.492Z,20.80
2017-06-14T12:50:56.031Z,21.20
2017-06-14T12:53:23.539Z,21.40
2017-06-14T12:55:51.868Z,21.10
2017-06-14T12:58:19.375Z,21.10
2017-06-14T13:00:46.887Z,20.90
2017-06-14T13:03:14.468Z,21.20
2017-06-14T13:05:42.300Z,21.20
2017-06-14T13:08:09.814Z,21.10
2017-06-14T13:10:37.394Z,21.10
2017-06-14T13:13:04.940Z,21.40
2017-06-14T13:15:33.242Z,22.60
2017-06-14T13:18:00.802Z,22.60
2017-06-14T13:20:28.308Z,22.80
2017-06-14T13:22:56.166Z,22.30
2017-06-14T13:25:24.989Z,22.20
2017-06-14T13:27:53.314Z,22.40
2017-06-14T13:30:22.278Z,22.40
2017-06-14T13:32:51.752Z,22.20
2017-06-14T13:35:21.290Z,22.10
2017-06-14T13:37:51.279Z,22.00
2017-06-14T13:40:20.179Z,21.90
2017-06-14T13:42:48.849Z,22.30
2017-06-14T13:45:17.734Z,22.50
2017-06-14T13:47:46.375Z,22.50
2017-06-14T13:50:15.259Z,23.10
2017-06-14T13:52:44.322Z,23.50
2017-06-14T13:55:13.208Z,23.60
2017-06-14T13:57:41.805Z,23.80
2017-06-14T14:00:11.734Z,22.80
2017-06-14T14:02:41.601Z,22.90
2017-06-14T14:05:10.343Z,22.90
2017-06-14T14:07:42.193Z,23.10
2017-06-14T14:10:11.705Z,23.40
2017-06-14T14:12:41.096Z,24.20
2017-06-14T14:15:09.415Z,25.00
2017-06-14T14:17:36.999Z,25.00
2017-06-14T14:20:04.506Z,24.40
2017-06-14T14:22:32.889Z,24.10
2017-06-14T14:25:00.450Z,24.00
2017-06-14T14:27:27.966Z,24.20
2017-06-14T14:29:55.480Z,24.50
2017-06-14T14:32:23.067Z,25.20
2017-06-14T14:34:50.596Z,25.70
2017-06-14T14:37:18.165Z,26.20
2017-06-14T14:39:45.680Z,27.10
2017-06-14T14:42:13.204Z,27.80
2017-06-14T14:44:40.756Z,27.50
2017-06-14T14:47:08.324Z,27.60
2017-06-14T14:49:35.976Z,27.80
2017-06-14T14:52:03.512Z,26.70
2017-06-14T14:54:31.056Z,26.20
2017-06-14T14:56:58.627Z,25.60
2017-06-14T14:59:26.141Z,25.70
2017-06-14T15:01:53.730Z,24.00
2017-06-14T15:04:22.020Z,24.40
2017-06-14T15:06:49.641Z,24.40
2017-06-14T15:09:17.256Z,24.70
2017-06-14T15:11:45.717Z,25.50
2017-06-14T15:14:14.440Z,25.20
2017-06-14T15:16:42.057Z,25.40
2017-06-14T15:19:10.491Z,26.10
2017-06-14T15:21:38.050Z,26.10
2017-06-14T15:24:05.733Z,26.30
2017-06-14T15:26:33.255Z,26.50
2017-06-14T15:29:00.786Z,27.20
2017-06-14T15:31:28.362Z,28.40
2017-06-14T15:33:55.909Z,29.50
2017-06-14T15:36:23.523Z,30.60
2017-06-14T15:38:51.057Z,29.60
2017-06-14T15:41:18.683Z,28.40
2017-06-14T15:43:46.228Z,27.50
2017-06-14T15:46:13.752Z,26.20
2017-06-14T15:48:41.304Z,26.20
2017-06-14T15:51:08.811Z,26.70
2017-06-14T15:53:36.376Z,26.20
2017-06-14T15:56:04.692Z,26.60
2017-06-14T15:58:32.268Z,26.50
2017-06-14T16:00:59.822Z,26.60
2017-06-14T16:03:27.337Z,27.70
2017-06-14T16:05:57.402Z,25.50
2017-06-14T16:08:26.559Z,25.50
2017-06-14T16:10:55.805Z,25.60
2017-06-14T16:13:25.718Z,26.90
2017-06-14T16:15:53.404Z,26.90
2017-06-14T16:18:22.197Z,27.90
2017-06-14T16:20:50.440Z,27.80
2017-06-14T16:23:18.147Z,28.20
2017-06-14T16:25:45.658Z,29.10
2017-06-14T16:28:13.221Z,29.50
2017-06-14T16:30:40.740Z,30.10
2017-06-14T16:33:08.257Z,30.50
2017-06-14T16:35:35.801Z,30.40
2017-06-14T16:38:03.375Z,31.00
2017-06-14T16:40:30.894Z,32.30
2017-06-14T16:42:58.398Z,32.30
2017-06-14T16:45:25.948Z,32.30
2017-06-14T16:47:53.488Z,32.10
2017-06-14T16:50:21.031Z,31.50
2017-06-14T16:52:48.557Z,31.70
2017-06-14T16:55:16.075Z,31.50
2017-06-14T16:57:43.617Z,30.60
2017-06-14T17:00:11.187Z,31.30
2017-06-14T17:02:38.703Z,32.60
2017-06-14T17:05:06.984Z,33.70
2017-06-14T17:07:36.950Z,33.60
2017-06-14T17:10:05.227Z,33.60
2017-06-14T17:12:32.790Z,33.50
2017-06-14T17:15:00.328Z,33.90
2017-06-14T17:17:27.877Z,34.10
2017-06-14T17:19:55.411Z,33.90
2017-06-14T17:22:22.973Z,34.40
2017-06-14T17:24:50.501Z,34.40
2017-06-14T17:27:18.081Z,34.80
2017-06-14T17:29:45.807Z,34.80
2017-06-14T17:32:13.340Z,35.60
2017-06-14T17:34:40.916Z,35.70
2017-06-14T17:37:08.426Z,36.20
2017-06-14T17:39:35.998Z,34.50
2017-06-14T17:42:03.514Z,33.80
2017-06-14T17:44:31.080Z,32.90
2017-06-14T17:46:58.836Z,32.90
2017-06-14T17:49:26.350Z,33.50
2017-06-14T17:51:53.912Z,34.30
2017-06-14T17:54:21.464Z,34.20
2017-06-14T17:56:49.740Z,33.00
2017-06-14T17:59:18.052Z,32.80
2017-06-14T18:01:45.574Z,32.70
2017-06-14T18:04:13.904Z,32.50
2017-06-14T18:06:41.416Z,32.50
2017-06-14T18:09:09.743Z,33.70
2017-06-14T18:11:37.276Z,33.70
2017-06-14T18:14:04.839Z,33.50
2017-06-14T18:16:32.455Z,33.70
2017-06-14T18:18:59.976Z,33.50
2017-06-14T18:21:27.531Z,32.90
2017-06-14T18:23:55.073Z,33.10
2017-06-14T18:26:22.634Z,32.90
2017-06-14T18:28:50.151Z,31.90
2017-06-14T18:31:17.715Z,31.00
2017-06-14T18:33:45.231Z,29.80
2017-06-14T18:36:12.743Z,28.70
2017-06-14T18:38:41.964Z,27.60
2017-06-14T18:41:10.892Z,27.90
2017-06-14T18:43:38.654Z,27.90
2017-06-14T18:46:06.196Z,27.90
2017-06-14T18:48:33.701Z,27.30
2017-06-14T18:51:02.213Z,27.00
2017-06-14T18:53:29.833Z,26.50
2017-06-14T18:55:57.367Z,25.90
2017-06-14T18:58:29.244Z,25.50
2017-06-14T19:00:57.545Z,25.20
2017-06-14T19:03:25.178Z,25.20
2017-06-14T19:05:52.792Z,25.20
2017-06-14T19:08:21.076Z,25.90
2017-06-14T19:10:49.037Z,25.90
2017-06-14T19:13:17.388Z,25.30
2017-06-14T19:15:45.052Z,25.30
2017-06-14T19:18:13.309Z,24.70
2017-06-14T19:20:41.256Z,24.10
2017-06-14T19:23:15.682Z,23.90
2017-06-14T19:26:01.886Z,23.60
2017-06-14T19:31:12.316Z,22.70
2017-06-14T19:33:48.412Z,22.40
2017-06-14T19:36:19.681Z,22.30
2017-06-14T19:38:59.323Z,22.10
2017-06-14T19:41:28.390Z,22.00
2017-06-14T19:43:57.285Z,21.90
2017-06-14T19:46:25.895Z,21.70
2017-06-14T19:48:55.325Z,21.50
2017-06-14T19:51:25.878Z,21.40
2017-06-14T19:53:56.414Z,21.30
2017-06-14T19:56:29.727Z,21.20
2017-06-14T19:59:00.377Z,21.20
2017-06-14T20:01:31.401Z,21.20
2017-06-14T20:04:00.976Z,21.10
2017-06-14T20:06:28.551Z,21.00
2017-06-14T20:08:56.054Z,20.90
2017-06-14T20:11:23.649Z,20.80
2017-06-14T20:13:51.164Z,20.70
2017-06-14T20:16:18.689Z,20.60
2017-06-14T20:18:46.269Z,20.50
2017-06-14T20:21:13.769Z,20.40
2017-06-14T20:23:41.276Z,20.40
2017-06-14T20:26:10.094Z,20.40
2017-06-14T20:28:37.643Z,20.30
2017-06-14T20:31:05.182Z,20.00
2017-06-14T20:33:32.708Z,19.80
2017-06-14T20:36:01.016Z,19.60
2017-06-14T20:38:31.655Z,19.60
2017-06-14T20:40:59.207Z,19.50
2017-06-14T20:43:26.786Z,19.50
2017-06-14T20:45:54.358Z,19.40
2017-06-14T20:48:21.885Z,19.30
2017-06-14T20:50:49.572Z,19.20
2017-06-14T20:53:17.347Z,19.20
2017-06-14T20:55:44.907Z,19.10
2017-06-14T20:58:12.521Z,19.10
2017-06-14T21:00:40.841Z,19.00
2017-06-14T21:03:08.607Z,19.00
2017-06-14T21:05:36.152Z,18.90
2017-06-14T21:08:03.738Z,18.80
2017-06-14T21:10:31.242Z,18.80
2017-06-14T21:12:58.792Z,18.60
2017-06-14T21:15:27.078Z,18.50
2017-06-14T21:17:54.593Z,18.50
2017-06-14T21:20:22.150Z,18.50
2017-06-14T21:22:49.673Z,18.50
2017-06-14T21:25:17.575Z,18.50
2017-06-14T21:27:45.083Z,18.50
2017-06-14T21:30:13.379Z,18.40
2017-06-14T21:32:40.932Z,18.40
2017-06-14T21:35:08.460Z,18.40
2017-06-14T21:37:36.003Z,18.30
2017-06-14T21:40:03.517Z,18.30
2017-06-14T21:42:32.232Z,18.20
2017-06-14T21:44:59.810Z,18.10
2017-06-14T21:47:27.323Z,18.00
2017-06-14T21:49:54.839Z,17.90
2017-06-14T21:52:22.379Z,17.90
2017-06-14T21:54:49.898Z,17.90
2017-06-14T21:57:17.452Z,17.90
2017-06-14T21:59:45.500Z,17.90
2017-06-14T22:02:13.083Z,17.90
2017-06-14T22:04:40.639Z,17.90
2017-06-14T22:07:09.018Z,17.80
2017-06-14T22:09:36.587Z,17.80
2017-06-14T22:12:04.172Z,17.80
2017-06-14T22:14:31.725Z,17.70
2017-06-14T22:16:59.236Z,17.70
2017-06-14T22:19:27.563Z,17.60
2017-06-14T22:21:55.099Z,17.50
2017-06-14T22:24:22.617Z,17.50
2017-06-14T22:26:50.172Z,17.40
2017-06-14T22:29:18.609Z,17.40
2017-06-14T22:31:46.151Z,17.30
2017-06-14T22:34:13.699Z,17.30
2017-06-14T22:36:41.989Z,17.20
2017-06-14T22:39:10.850Z,17.20
2017-06-14T22:41:38.377Z,17.10
2017-06-14T22:44:07.164Z,17.10
2017-06-14T22:46:34.689Z,17.00
2017-06-14T22:49:02.258Z,17.00
2017-06-14T22:51:29.762Z,17.00
2017-06-14T22:53:57.272Z,16.90
2017-06-14T22:56:24.835Z,16.90
2017-06-14T22:58:52.357Z,16.90
2017-06-14T23:01:20.788Z,16.80
2017-06-14T23:03:48.334Z,16.80
2017-06-14T23:06:15.852Z,16.70
2017-06-14T23:08:44.165Z,16.60
2017-06-14T23:11:11.721Z,16.50
2017-06-14T23:13:40.055Z,16.50
2017-06-14T23:16:07.595Z,16.50
2017-06-14T23:18:35.162Z,16.50
2017-06-14T23:21:02.685Z,16.60
2017-06-14T23:23:30.224Z,16.50
2017-06-14T23:25:58.550Z,16.50
2017-06-14T23:28:26.069Z,16.50
2017-06-14T23:30:54.418Z,16.40
2017-06-14T23:33:21.945Z,16.40
2017-06-14T23:35:49.517Z,16.50
2017-06-14T23:38:17.071Z,16.40
2017-06-14T23:40:44.619Z,16.40
2017-06-14T23:43:12.131Z,16.40
2017-06-14T23:45:39.667Z,16.30
2017-06-14T23:48:07.175Z,16.30
2017-06-14T23:50:34.714Z,16.20
2017-06-14T23:53:03.064Z,16.10
2017-06-14T23:55:30.576Z,16.10
2017-06-14T23:57:58.091Z,16.10
